sensor_id;sensor_type;location;lat;lon;timestamp;P1;durP1;ratioP1;P2;durP2;ratioP2
3465;SDS011;1747;48.884;9.160;2023-03-31T00:01:00;5.47;;;1.30;;
3465;SDS011;1747;48.884;9.160;2023-03-31T00:03:28;5.72;;;1.73;;
3465;SDS011;1747;48.884;9.160;2023-03-31T00:05:58;4.53;;;1.10;;
3465;SDS011;1747;48.884;9.160;2023-03-31T00:08:26;2.78;;;1.20;;
3465;SDS011;1747;48.884;9.160;2023-03-31T00:10:59;3.67;;;1.15;;
3465;SDS011;1747;48.884;9.160;2023-03-31T00:13:27;3.72;;;1.35;;
3465;SDS011;1747;48.884;9.160;2023-03-31T00:15:57;7.50;;;1.67;;
3465;SDS011;1747;48.884;9.160;2023-03-31T00:18:25;4.00;;;1.20;;
3465;SDS011;1747;48.884;9.160;2023-03-31T00:20:53;3.85;;;0.90;;
3465;SDS011;1747;48.884;9.160;2023-03-31T00:23:21;3.88;;;1.17;;
3465;SDS011;1747;48.884;9.160;2023-03-31T00:25:53;4.00;;;1.20;;
3465;SDS011;1747;48.884;9.160;2023-03-31T00:28:20;6.53;;;1.30;;
3465;SDS011;1747;48.884;9.160;2023-03-31T00:30:47;5.05;;;1.35;;
3465;SDS011;1747;48.884;9.160;2023-03-31T00:33:15;3.90;;;1.33;;
3465;SDS011;1747;48.884;9.160;2023-03-31T00:35:42;7.47;;;1.20;;
3465;SDS011;1747;48.884;9.160;2023-03-31T00:38:10;2.67;;;1.10;;
3465;SDS011;1747;48.884;9.160;2023-03-31T00:40:43;2.80;;;1.20;;
3465;SDS011;1747;48.884;9.160;2023-03-31T00:43:19;5.60;;;1.65;;
3465;SDS011;1747;48.884;9.160;2023-03-31T00:45:52;3.88;;;1.60;;
3465;SDS011;1747;48.884;9.160;2023-03-31T00:48:21;6.07;;;1.25;;
3465;SDS011;1747;48.884;9.160;2023-03-31T00:50:50;7.65;;;1.35;;
3465;SDS011;1747;48.884;9.160;2023-03-31T00:53:20;5.00;;;1.45;;
3465;SDS011;1747;48.884;9.160;2023-03-31T00:55:52;2.95;;;1.10;;
3465;SDS011;1747;48.884;9.160;2023-03-31T00:58:21;8.20;;;1.38;;
3465;SDS011;1747;48.884;9.160;2023-03-31T01:00:52;4.30;;;1.30;;
3465;SDS011;1747;48.884;9.160;2023-03-31T01:03:23;4.70;;;1.23;;
3465;SDS011;1747;48.884;9.160;2023-03-31T01:05:51;4.65;;;1.50;;
3465;SDS011;1747;48.884;9.160;2023-03-31T01:08:22;4.43;;;1.52;;
3465;SDS011;1747;48.884;9.160;2023-03-31T01:10:52;5.90;;;1.48;;
3465;SDS011;1747;48.884;9.160;2023-03-31T01:13:20;4.57;;;1.85;;
3465;SDS011;1747;48.884;9.160;2023-03-31T01:15:49;6.40;;;1.50;;
3465;SDS011;1747;48.884;9.160;2023-03-31T01:18:16;6.38;;;1.63;;
3465;SDS011;1747;48.884;9.160;2023-03-31T01:20:50;4.88;;;1.40;;
3465;SDS011;1747;48.884;9.160;2023-03-31T01:24:08;3.88;;;1.40;;
3465;SDS011;1747;48.884;9.160;2023-03-31T01:27:07;6.72;;;1.50;;
3465;SDS011;1747;48.884;9.160;2023-03-31T01:30:07;3.35;;;1.17;;
3465;SDS011;1747;48.884;9.160;2023-03-31T01:33:05;7.10;;;1.50;;
3465;SDS011;1747;48.884;9.160;2023-03-31T01:36:05;4.80;;;1.25;;
3465;SDS011;1747;48.884;9.160;2023-03-31T01:38:51;7.47;;;1.50;;
3465;SDS011;1747;48.884;9.160;2023-03-31T01:41:49;3.50;;;1.65;;
3465;SDS011;1747;48.884;9.160;2023-03-31T01:44:25;7.22;;;1.83;;
3465;SDS011;1747;48.884;9.160;2023-03-31T01:47:00;3.67;;;1.15;;
3465;SDS011;1747;48.884;9.160;2023-03-31T01:49:33;3.03;;;1.15;;
3465;SDS011;1747;48.884;9.160;2023-03-31T01:52:10;2.55;;;1.20;;
3465;SDS011;1747;48.884;9.160;2023-03-31T01:54:45;5.55;;;1.60;;
3465;SDS011;1747;48.884;9.160;2023-03-31T01:57:17;4.10;;;1.00;;
3465;SDS011;1747;48.884;9.160;2023-03-31T01:59:48;3.22;;;1.30;;
3465;SDS011;1747;48.884;9.160;2023-03-31T02:02:24;4.63;;;1.45;;
3465;SDS011;1747;48.884;9.160;2023-03-31T02:04:54;7.15;;;1.30;;
3465;SDS011;1747;48.884;9.160;2023-03-31T02:07:26;5.93;;;1.50;;
3465;SDS011;1747;48.884;9.160;2023-03-31T02:09:57;5.15;;;1.10;;
3465;SDS011;1747;48.884;9.160;2023-03-31T02:12:28;4.60;;;1.13;;
3465;SDS011;1747;48.884;9.160;2023-03-31T02:14:58;3.90;;;1.05;;
3465;SDS011;1747;48.884;9.160;2023-03-31T02:17:28;3.72;;;1.13;;
3465;SDS011;1747;48.884;9.160;2023-03-31T02:19:57;2.67;;;0.85;;
3465;SDS011;1747;48.884;9.160;2023-03-31T02:22:28;3.00;;;0.95;;
3465;SDS011;1747;48.884;9.160;2023-03-31T02:24:59;2.85;;;0.95;;
3465;SDS011;1747;48.884;9.160;2023-03-31T02:27:29;3.63;;;1.02;;
3465;SDS011;1747;48.884;9.160;2023-03-31T02:29:58;3.30;;;0.88;;
3465;SDS011;1747;48.884;9.160;2023-03-31T02:32:28;2.40;;;0.82;;
3465;SDS011;1747;48.884;9.160;2023-03-31T02:34:57;4.75;;;1.00;;
3465;SDS011;1747;48.884;9.160;2023-03-31T02:37:25;6.10;;;1.00;;
3465;SDS011;1747;48.884;9.160;2023-03-31T02:39:53;2.17;;;0.90;;
3465;SDS011;1747;48.884;9.160;2023-03-31T02:42:22;4.35;;;1.20;;
3465;SDS011;1747;48.884;9.160;2023-03-31T02:44:50;5.57;;;1.20;;
3465;SDS011;1747;48.884;9.160;2023-03-31T02:47:17;3.15;;;0.93;;
3465;SDS011;1747;48.884;9.160;2023-03-31T02:49:47;6.65;;;1.50;;
3465;SDS011;1747;48.884;9.160;2023-03-31T02:52:26;4.15;;;1.10;;
3465;SDS011;1747;48.884;9.160;2023-03-31T02:55:17;4.70;;;1.48;;
3465;SDS011;1747;48.884;9.160;2023-03-31T02:58:04;2.22;;;1.00;;
3465;SDS011;1747;48.884;9.160;2023-03-31T03:00:48;4.40;;;1.35;;
3465;SDS011;1747;48.884;9.160;2023-03-31T03:03:27;5.72;;;1.48;;
3465;SDS011;1747;48.884;9.160;2023-03-31T03:06:03;6.47;;;1.45;;
3465;SDS011;1747;48.884;9.160;2023-03-31T03:08:45;4.18;;;1.40;;
3465;SDS011;1747;48.884;9.160;2023-03-31T03:11:24;4.93;;;1.45;;
3465;SDS011;1747;48.884;9.160;2023-03-31T03:13:58;3.45;;;1.45;;
3465;SDS011;1747;48.884;9.160;2023-03-31T03:16:32;3.22;;;1.40;;
3465;SDS011;1747;48.884;9.160;2023-03-31T03:19:03;6.82;;;1.63;;
3465;SDS011;1747;48.884;9.160;2023-03-31T03:21:32;4.30;;;1.70;;
3465;SDS011;1747;48.884;9.160;2023-03-31T03:23:59;3.78;;;1.42;;
3465;SDS011;1747;48.884;9.160;2023-03-31T03:26:26;3.28;;;1.30;;
3465;SDS011;1747;48.884;9.160;2023-03-31T03:28:54;3.65;;;1.20;;
3465;SDS011;1747;48.884;9.160;2023-03-31T03:31:21;5.78;;;1.73;;
3465;SDS011;1747;48.884;9.160;2023-03-31T03:33:51;3.00;;;1.55;;
3465;SDS011;1747;48.884;9.160;2023-03-31T03:36:18;4.45;;;1.65;;
3465;SDS011;1747;48.884;9.160;2023-03-31T03:38:47;7.22;;;2.10;;
3465;SDS011;1747;48.884;9.160;2023-03-31T03:41:13;6.15;;;1.95;;
3465;SDS011;1747;48.884;9.160;2023-03-31T03:43:40;3.28;;;1.58;;
3465;SDS011;1747;48.884;9.160;2023-03-31T03:46:07;3.15;;;1.50;;
3465;SDS011;1747;48.884;9.160;2023-03-31T03:48:34;5.40;;;1.52;;
3465;SDS011;1747;48.884;9.160;2023-03-31T03:51:02;4.50;;;1.65;;
3465;SDS011;1747;48.884;9.160;2023-03-31T03:53:31;3.17;;;1.50;;
3465;SDS011;1747;48.884;9.160;2023-03-31T03:55:58;4.07;;;1.50;;
3465;SDS011;1747;48.884;9.160;2023-03-31T03:58:25;4.80;;;1.75;;
3465;SDS011;1747;48.884;9.160;2023-03-31T04:00:52;4.63;;;1.70;;
3465;SDS011;1747;48.884;9.160;2023-03-31T04:03:20;5.05;;;1.80;;
3465;SDS011;1747;48.884;9.160;2023-03-31T04:05:47;2.72;;;1.50;;
3465;SDS011;1747;48.884;9.160;2023-03-31T04:08:16;3.38;;;1.60;;
3465;SDS011;1747;48.884;9.160;2023-03-31T04:10:43;2.92;;;1.40;;
3465;SDS011;1747;48.884;9.160;2023-03-31T04:13:11;4.35;;;1.88;;
3465;SDS011;1747;48.884;9.160;2023-03-31T04:15:38;6.05;;;2.03;;
3465;SDS011;1747;48.884;9.160;2023-03-31T04:18:04;4.03;;;1.77;;
3465;SDS011;1747;48.884;9.160;2023-03-31T04:20:34;4.25;;;1.80;;
3465;SDS011;1747;48.884;9.160;2023-03-31T04:23:01;5.53;;;2.13;;
3465;SDS011;1747;48.884;9.160;2023-03-31T04:25:31;5.80;;;2.25;;
3465;SDS011;1747;48.884;9.160;2023-03-31T04:27:57;5.97;;;1.75;;
3465;SDS011;1747;48.884;9.160;2023-03-31T04:30:25;4.97;;;1.75;;
3465;SDS011;1747;48.884;9.160;2023-03-31T04:32:55;5.35;;;1.90;;
3465;SDS011;1747;48.884;9.160;2023-03-31T04:35:24;2.92;;;1.60;;
3465;SDS011;1747;48.884;9.160;2023-03-31T04:38:02;9.10;;;2.10;;
3465;SDS011;1747;48.884;9.160;2023-03-31T04:40:30;5.53;;;1.75;;
3465;SDS011;1747;48.884;9.160;2023-03-31T04:42:59;7.38;;;2.83;;
3465;SDS011;1747;48.884;9.160;2023-03-31T04:45:26;6.68;;;1.98;;
3465;SDS011;1747;48.884;9.160;2023-03-31T04:47:53;4.20;;;1.90;;
3465;SDS011;1747;48.884;9.160;2023-03-31T04:50:19;6.57;;;2.30;;
3465;SDS011;1747;48.884;9.160;2023-03-31T04:52:46;5.68;;;2.65;;
3465;SDS011;1747;48.884;9.160;2023-03-31T04:55:13;6.20;;;2.40;;
3465;SDS011;1747;48.884;9.160;2023-03-31T04:57:41;7.43;;;2.72;;
3465;SDS011;1747;48.884;9.160;2023-03-31T05:00:09;3.85;;;2.33;;
3465;SDS011;1747;48.884;9.160;2023-03-31T05:02:36;5.72;;;2.25;;
3465;SDS011;1747;48.884;9.160;2023-03-31T05:05:03;10.52;;;2.30;;
3465;SDS011;1747;48.884;9.160;2023-03-31T05:07:30;5.53;;;2.63;;
3465;SDS011;1747;48.884;9.160;2023-03-31T05:09:57;5.35;;;2.05;;
3465;SDS011;1747;48.884;9.160;2023-03-31T05:12:24;5.60;;;2.72;;
3465;SDS011;1747;48.884;9.160;2023-03-31T05:14:53;4.70;;;2.22;;
3465;SDS011;1747;48.884;9.160;2023-03-31T05:17:20;7.60;;;2.58;;
3465;SDS011;1747;48.884;9.160;2023-03-31T05:19:47;5.93;;;2.47;;
3465;SDS011;1747;48.884;9.160;2023-03-31T05:22:14;6.20;;;3.00;;
3465;SDS011;1747;48.884;9.160;2023-03-31T05:24:44;8.02;;;2.90;;
3465;SDS011;1747;48.884;9.160;2023-03-31T05:27:11;6.43;;;2.40;;
3465;SDS011;1747;48.884;9.160;2023-03-31T05:29:38;7.63;;;2.92;;
3465;SDS011;1747;48.884;9.160;2023-03-31T05:32:07;11.35;;;3.97;;
3465;SDS011;1747;48.884;9.160;2023-03-31T05:34:34;8.18;;;3.13;;
3465;SDS011;1747;48.884;9.160;2023-03-31T05:37:01;8.23;;;3.42;;
3465;SDS011;1747;48.884;9.160;2023-03-31T05:39:29;6.50;;;2.83;;
3465;SDS011;1747;48.884;9.160;2023-03-31T05:41:57;7.75;;;3.40;;
3465;SDS011;1747;48.884;9.160;2023-03-31T05:44:24;6.13;;;2.92;;
3465;SDS011;1747;48.884;9.160;2023-03-31T05:46:54;10.50;;;3.15;;
3465;SDS011;1747;48.884;9.160;2023-03-31T05:49:22;8.18;;;3.28;;
3465;SDS011;1747;48.884;9.160;2023-03-31T05:51:49;6.93;;;3.58;;
3465;SDS011;1747;48.884;9.160;2023-03-31T05:54:17;8.27;;;3.10;;
3465;SDS011;1747;48.884;9.160;2023-03-31T05:56:44;8.15;;;3.17;;
3465;SDS011;1747;48.884;9.160;2023-03-31T05:59:11;8.82;;;3.53;;
3465;SDS011;1747;48.884;9.160;2023-03-31T06:01:38;9.02;;;3.10;;
3465;SDS011;1747;48.884;9.160;2023-03-31T06:04:05;6.25;;;3.15;;
3465;SDS011;1747;48.884;9.160;2023-03-31T06:06:33;6.35;;;3.20;;
3465;SDS011;1747;48.884;9.160;2023-03-31T06:09:02;8.95;;;3.25;;
3465;SDS011;1747;48.884;9.160;2023-03-31T06:11:29;6.97;;;3.10;;
3465;SDS011;1747;48.884;9.160;2023-03-31T06:13:56;7.85;;;3.10;;
3465;SDS011;1747;48.884;9.160;2023-03-31T06:16:23;6.22;;;2.97;;
3465;SDS011;1747;48.884;9.160;2023-03-31T06:18:50;9.10;;;3.28;;
3465;SDS011;1747;48.884;9.160;2023-03-31T06:21:17;11.18;;;3.00;;
3465;SDS011;1747;48.884;9.160;2023-03-31T06:23:47;7.63;;;3.53;;
3465;SDS011;1747;48.884;9.160;2023-03-31T06:26:14;10.38;;;3.53;;
3465;SDS011;1747;48.884;9.160;2023-03-31T06:28:43;6.65;;;2.97;;
3465;SDS011;1747;48.884;9.160;2023-03-31T06:31:11;6.35;;;3.08;;
3465;SDS011;1747;48.884;9.160;2023-03-31T06:33:40;8.63;;;3.20;;
3465;SDS011;1747;48.884;9.160;2023-03-31T06:36:08;7.93;;;3.20;;
3465;SDS011;1747;48.884;9.160;2023-03-31T06:38:35;5.57;;;3.13;;
3465;SDS011;1747;48.884;9.160;2023-03-31T06:41:04;9.52;;;3.28;;
3465;SDS011;1747;48.884;9.160;2023-03-31T06:43:32;10.25;;;3.30;;
3465;SDS011;1747;48.884;9.160;2023-03-31T06:45:59;6.00;;;3.30;;
3465;SDS011;1747;48.884;9.160;2023-03-31T06:48:26;7.95;;;2.95;;
3465;SDS011;1747;48.884;9.160;2023-03-31T06:50:53;7.03;;;3.58;;
3465;SDS011;1747;48.884;9.160;2023-03-31T06:53:20;7.95;;;3.22;;
3465;SDS011;1747;48.884;9.160;2023-03-31T06:55:47;10.52;;;3.50;;
3465;SDS011;1747;48.884;9.160;2023-03-31T06:58:16;6.60;;;3.38;;
3465;SDS011;1747;48.884;9.160;2023-03-31T07:00:43;7.65;;;3.30;;
3465;SDS011;1747;48.884;9.160;2023-03-31T07:03:10;8.30;;;3.75;;
3465;SDS011;1747;48.884;9.160;2023-03-31T07:05:37;7.07;;;4.28;;
3465;SDS011;1747;48.884;9.160;2023-03-31T07:08:04;7.70;;;3.72;;
3465;SDS011;1747;48.884;9.160;2023-03-31T07:10:31;10.80;;;3.92;;
3465;SDS011;1747;48.884;9.160;2023-03-31T07:12:58;7.30;;;4.15;;
3465;SDS011;1747;48.884;9.160;2023-03-31T07:15:26;6.20;;;4.03;;
3465;SDS011;1747;48.884;9.160;2023-03-31T07:17:54;6.72;;;3.42;;
3465;SDS011;1747;48.884;9.160;2023-03-31T07:20:26;7.13;;;3.63;;
3465;SDS011;1747;48.884;9.160;2023-03-31T07:22:54;7.15;;;3.42;;
3465;SDS011;1747;48.884;9.160;2023-03-31T07:25:21;8.57;;;3.90;;
3465;SDS011;1747;48.884;9.160;2023-03-31T07:27:48;7.55;;;3.67;;
3465;SDS011;1747;48.884;9.160;2023-03-31T07:30:16;6.15;;;3.03;;
3465;SDS011;1747;48.884;9.160;2023-03-31T07:32:46;5.78;;;3.05;;
3465;SDS011;1747;48.884;9.160;2023-03-31T07:35:15;3.60;;;2.40;;
3465;SDS011;1747;48.884;9.160;2023-03-31T07:37:43;5.63;;;2.30;;
3465;SDS011;1747;48.884;9.160;2023-03-31T07:40:13;4.65;;;2.20;;
3465;SDS011;1747;48.884;9.160;2023-03-31T07:42:43;4.00;;;1.92;;
3465;SDS011;1747;48.884;9.160;2023-03-31T07:45:11;2.60;;;1.60;;
3465;SDS011;1747;48.884;9.160;2023-03-31T07:47:38;3.13;;;1.80;;
3465;SDS011;1747;48.884;9.160;2023-03-31T07:50:07;1.85;;;1.40;;
3465;SDS011;1747;48.884;9.160;2023-03-31T07:52:35;4.63;;;1.60;;
3465;SDS011;1747;48.884;9.160;2023-03-31T07:55:02;4.07;;;1.65;;
3465;SDS011;1747;48.884;9.160;2023-03-31T07:57:29;2.85;;;1.45;;
3465;SDS011;1747;48.884;9.160;2023-03-31T07:59:56;3.60;;;1.50;;
3465;SDS011;1747;48.884;9.160;2023-03-31T08:02:23;1.38;;;1.10;;
3465;SDS011;1747;48.884;9.160;2023-03-31T08:04:50;4.10;;;2.55;;
3465;SDS011;1747;48.884;9.160;2023-03-31T08:07:18;2.65;;;1.13;;
3465;SDS011;1747;48.884;9.160;2023-03-31T08:09:45;2.55;;;0.95;;
3465;SDS011;1747;48.884;9.160;2023-03-31T08:12:13;3.08;;;1.00;;
3465;SDS011;1747;48.884;9.160;2023-03-31T08:14:40;2.03;;;1.00;;
3465;SDS011;1747;48.884;9.160;2023-03-31T08:17:07;1.88;;;1.00;;
3465;SDS011;1747;48.884;9.160;2023-03-31T08:19:34;4.22;;;1.10;;
3465;SDS011;1747;48.884;9.160;2023-03-31T08:22:01;3.38;;;1.20;;
3465;SDS011;1747;48.884;9.160;2023-03-31T08:24:29;1.67;;;1.00;;
3465;SDS011;1747;48.884;9.160;2023-03-31T08:26:56;6.07;;;0.90;;
3465;SDS011;1747;48.884;9.160;2023-03-31T08:29:23;2.63;;;1.08;;
3465;SDS011;1747;48.884;9.160;2023-03-31T08:31:49;6.65;;;1.00;;
3465;SDS011;1747;48.884;9.160;2023-03-31T08:34:16;2.53;;;1.20;;
3465;SDS011;1747;48.884;9.160;2023-03-31T08:36:43;2.85;;;1.45;;
3465;SDS011;1747;48.884;9.160;2023-03-31T08:39:10;5.78;;;1.50;;
3465;SDS011;1747;48.884;9.160;2023-03-31T08:41:41;4.18;;;1.30;;
3465;SDS011;1747;48.884;9.160;2023-03-31T08:44:15;3.50;;;1.08;;
3465;SDS011;1747;48.884;9.160;2023-03-31T08:46:46;1.70;;;0.88;;
3465;SDS011;1747;48.884;9.160;2023-03-31T08:49:16;5.20;;;1.27;;
3465;SDS011;1747;48.884;9.160;2023-03-31T08:51:46;2.42;;;1.02;;
3465;SDS011;1747;48.884;9.160;2023-03-31T08:54:16;3.33;;;0.95;;
3465;SDS011;1747;48.884;9.160;2023-03-31T08:56:47;5.63;;;0.90;;
3465;SDS011;1747;48.884;9.160;2023-03-31T08:59:17;2.70;;;1.33;;
3465;SDS011;1747;48.884;9.160;2023-03-31T09:01:52;3.53;;;1.00;;
3465;SDS011;1747;48.884;9.160;2023-03-31T09:04:31;4.78;;;1.52;;
3465;SDS011;1747;48.884;9.160;2023-03-31T09:07:12;3.75;;;1.00;;
3465;SDS011;1747;48.884;9.160;2023-03-31T09:09:47;3.85;;;1.20;;
3465;SDS011;1747;48.884;9.160;2023-03-31T09:12:24;3.60;;;1.13;;
3465;SDS011;1747;48.884;9.160;2023-03-31T09:14:59;3.50;;;1.10;;
3465;SDS011;1747;48.884;9.160;2023-03-31T09:17:28;5.22;;;1.40;;
3465;SDS011;1747;48.884;9.160;2023-03-31T09:19:58;2.60;;;0.93;;
3465;SDS011;1747;48.884;9.160;2023-03-31T09:22:32;2.13;;;0.90;;
3465;SDS011;1747;48.884;9.160;2023-03-31T09:25:04;3.90;;;1.00;;
3465;SDS011;1747;48.884;9.160;2023-03-31T09:27:36;3.60;;;1.15;;
3465;SDS011;1747;48.884;9.160;2023-03-31T09:30:09;3.13;;;1.50;;
3465;SDS011;1747;48.884;9.160;2023-03-31T09:32:41;3.40;;;0.85;;
3465;SDS011;1747;48.884;9.160;2023-03-31T09:35:15;3.55;;;0.90;;
3465;SDS011;1747;48.884;9.160;2023-03-31T09:37:45;3.17;;;0.95;;
3465;SDS011;1747;48.884;9.160;2023-03-31T09:40:15;5.35;;;1.40;;
3465;SDS011;1747;48.884;9.160;2023-03-31T09:42:44;5.05;;;1.42;;
3465;SDS011;1747;48.884;9.160;2023-03-31T09:45:13;5.13;;;0.98;;
3465;SDS011;1747;48.884;9.160;2023-03-31T09:47:41;2.47;;;0.90;;
3465;SDS011;1747;48.884;9.160;2023-03-31T09:50:11;6.72;;;1.13;;
3465;SDS011;1747;48.884;9.160;2023-03-31T09:52:38;9.95;;;1.58;;
3465;SDS011;1747;48.884;9.160;2023-03-31T09:55:14;8.10;;;1.75;;
3465;SDS011;1747;48.884;9.160;2023-03-31T09:57:47;5.00;;;1.00;;
3465;SDS011;1747;48.884;9.160;2023-03-31T10:00:14;5.95;;;1.23;;
3465;SDS011;1747;48.884;9.160;2023-03-31T10:02:43;5.57;;;1.25;;
3465;SDS011;1747;48.884;9.160;2023-03-31T10:05:18;6.45;;;1.45;;
3465;SDS011;1747;48.884;9.160;2023-03-31T10:07:51;2.33;;;1.10;;
3465;SDS011;1747;48.884;9.160;2023-03-31T10:10:23;4.57;;;1.00;;
3465;SDS011;1747;48.884;9.160;2023-03-31T10:12:55;6.55;;;1.35;;
3465;SDS011;1747;48.884;9.160;2023-03-31T10:15:24;4.80;;;1.20;;
3465;SDS011;1747;48.884;9.160;2023-03-31T10:17:52;5.10;;;1.10;;
3465;SDS011;1747;48.884;9.160;2023-03-31T10:20:30;7.20;;;1.40;;
3465;SDS011;1747;48.884;9.160;2023-03-31T10:23:02;8.95;;;1.10;;
3465;SDS011;1747;48.884;9.160;2023-03-31T10:25:31;4.93;;;0.98;;
3465;SDS011;1747;48.884;9.160;2023-03-31T10:28:01;4.25;;;1.13;;
3465;SDS011;1747;48.884;9.160;2023-03-31T10:30:30;6.18;;;1.10;;
3465;SDS011;1747;48.884;9.160;2023-03-31T10:33:04;3.00;;;1.02;;
3465;SDS011;1747;48.884;9.160;2023-03-31T10:35:33;7.47;;;1.10;;
3465;SDS011;1747;48.884;9.160;2023-03-31T10:38:02;2.88;;;0.75;;
3465;SDS011;1747;48.884;9.160;2023-03-31T10:40:32;2.88;;;1.00;;
3465;SDS011;1747;48.884;9.160;2023-03-31T10:43:03;3.53;;;1.08;;
3465;SDS011;1747;48.884;9.160;2023-03-31T10:45:40;6.32;;;0.90;;
3465;SDS011;1747;48.884;9.160;2023-03-31T10:48:16;4.63;;;1.13;;
3465;SDS011;1747;48.884;9.160;2023-03-31T10:50:44;2.92;;;0.75;;
3465;SDS011;1747;48.884;9.160;2023-03-31T10:53:12;5.53;;;1.10;;
3465;SDS011;1747;48.884;9.160;2023-03-31T10:55:40;4.07;;;1.35;;
3465;SDS011;1747;48.884;9.160;2023-03-31T10:58:22;5.60;;;0.90;;
3465;SDS011;1747;48.884;9.160;2023-03-31T11:01:02;2.13;;;0.90;;
3465;SDS011;1747;48.884;9.160;2023-03-31T11:03:36;1.92;;;0.90;;
3465;SDS011;1747;48.884;9.160;2023-03-31T11:06:20;3.95;;;1.30;;
3465;SDS011;1747;48.884;9.160;2023-03-31T11:08:54;4.82;;;1.00;;
3465;SDS011;1747;48.884;9.160;2023-03-31T11:11:33;1.75;;;0.70;;
3465;SDS011;1747;48.884;9.160;2023-03-31T11:14:19;4.40;;;1.30;;
3465;SDS011;1747;48.884;9.160;2023-03-31T11:16:53;5.15;;;1.15;;
3465;SDS011;1747;48.884;9.160;2023-03-31T11:19:28;3.78;;;0.57;;
3465;SDS011;1747;48.884;9.160;2023-03-31T11:22:05;5.05;;;0.90;;
3465;SDS011;1747;48.884;9.160;2023-03-31T11:24:41;9.05;;;0.70;;
3465;SDS011;1747;48.884;9.160;2023-03-31T11:27:26;4.72;;;1.00;;
3465;SDS011;1747;48.884;9.160;2023-03-31T11:30:05;5.50;;;0.60;;
3465;SDS011;1747;48.884;9.160;2023-03-31T11:32:51;2.05;;;0.50;;
3465;SDS011;1747;48.884;9.160;2023-03-31T11:35:33;3.10;;;0.70;;
3465;SDS011;1747;48.884;9.160;2023-03-31T11:38:17;2.47;;;0.40;;
3465;SDS011;1747;48.884;9.160;2023-03-31T11:41:00;0.10;;;0.10;;
3465;SDS011;1747;48.884;9.160;2023-03-31T11:43:30;0.55;;;0.20;;
3465;SDS011;1747;48.884;9.160;2023-03-31T11:46:02;0.20;;;0.20;;
3465;SDS011;1747;48.884;9.160;2023-03-31T11:48:34;1.17;;;0.45;;
3465;SDS011;1747;48.884;9.160;2023-03-31T11:51:06;0.40;;;0.28;;
3465;SDS011;1747;48.884;9.160;2023-03-31T11:53:40;1.50;;;0.30;;
3465;SDS011;1747;48.884;9.160;2023-03-31T11:56:10;0.47;;;0.35;;
3465;SDS011;1747;48.884;9.160;2023-03-31T11:58:40;1.92;;;0.35;;
3465;SDS011;1747;48.884;9.160;2023-03-31T12:01:15;1.38;;;0.40;;
3465;SDS011;1747;48.884;9.160;2023-03-31T12:03:50;1.65;;;0.40;;
3465;SDS011;1747;48.884;9.160;2023-03-31T12:06:21;1.70;;;0.30;;
3465;SDS011;1747;48.884;9.160;2023-03-31T12:08:53;0.88;;;0.30;;
3465;SDS011;1747;48.884;9.160;2023-03-31T12:11:31;1.95;;;0.30;;
3465;SDS011;1747;48.884;9.160;2023-03-31T12:14:07;2.95;;;0.28;;
3465;SDS011;1747;48.884;9.160;2023-03-31T12:16:48;2.72;;;0.30;;
3465;SDS011;1747;48.884;9.160;2023-03-31T12:19:19;0.88;;;0.30;;
3465;SDS011;1747;48.884;9.160;2023-03-31T12:21:52;0.75;;;0.30;;
3465;SDS011;1747;48.884;9.160;2023-03-31T12:24:21;0.98;;;0.20;;
3465;SDS011;1747;48.884;9.160;2023-03-31T12:26:50;0.52;;;0.30;;
3465;SDS011;1747;48.884;9.160;2023-03-31T12:29:27;0.38;;;0.20;;
3465;SDS011;1747;48.884;9.160;2023-03-31T12:31:58;0.93;;;0.75;;
3465;SDS011;1747;48.884;9.160;2023-03-31T12:34:28;0.52;;;0.30;;
3465;SDS011;1747;48.884;9.160;2023-03-31T12:37:07;5.80;;;0.60;;
3465;SDS011;1747;48.884;9.160;2023-03-31T12:39:55;4.30;;;0.60;;
3465;SDS011;1747;48.884;9.160;2023-03-31T12:42:38;2.83;;;0.52;;
3465;SDS011;1747;48.884;9.160;2023-03-31T12:45:17;1.55;;;0.50;;
3465;SDS011;1747;48.884;9.160;2023-03-31T12:47:57;3.72;;;0.68;;
3465;SDS011;1747;48.884;9.160;2023-03-31T12:50:54;2.13;;;0.68;;
3465;SDS011;1747;48.884;9.160;2023-03-31T12:53:30;3.17;;;0.68;;
3465;SDS011;1747;48.884;9.160;2023-03-31T12:56:04;2.28;;;0.45;;
3465;SDS011;1747;48.884;9.160;2023-03-31T12:58:42;4.32;;;0.55;;
3465;SDS011;1747;48.884;9.160;2023-03-31T13:01:11;2.35;;;0.57;;
3465;SDS011;1747;48.884;9.160;2023-03-31T13:03:51;2.70;;;0.80;;
3465;SDS011;1747;48.884;9.160;2023-03-31T13:06:50;2.50;;;0.98;;
3465;SDS011;1747;48.884;9.160;2023-03-31T13:12:21;3.67;;;1.00;;
3465;SDS011;1747;48.884;9.160;2023-03-31T13:14:52;1.55;;;1.13;;
3465;SDS011;1747;48.884;9.160;2023-03-31T13:17:30;4.18;;;0.70;;
3465;SDS011;1747;48.884;9.160;2023-03-31T13:20:22;2.35;;;0.80;;
3465;SDS011;1747;48.884;9.160;2023-03-31T13:23:04;1.70;;;0.50;;
3465;SDS011;1747;48.884;9.160;2023-03-31T13:25:49;1.35;;;0.50;;
3465;SDS011;1747;48.884;9.160;2023-03-31T13:28:23;2.08;;;0.90;;
3465;SDS011;1747;48.884;9.160;2023-03-31T13:30:58;4.35;;;0.55;;
3465;SDS011;1747;48.884;9.160;2023-03-31T13:33:30;1.63;;;0.40;;
3465;SDS011;1747;48.884;9.160;2023-03-31T13:38:58;2.67;;;0.50;;
3465;SDS011;1747;48.884;9.160;2023-03-31T13:41:41;1.48;;;0.40;;
3465;SDS011;1747;48.884;9.160;2023-03-31T13:44:31;2.78;;;0.45;;
3465;SDS011;1747;48.884;9.160;2023-03-31T13:53:13;4.10;;;0.30;;
3465;SDS011;1747;48.884;9.160;2023-03-31T13:56:03;2.17;;;0.20;;
3465;SDS011;1747;48.884;9.160;2023-03-31T14:01:48;0.40;;;0.20;;
3465;SDS011;1747;48.884;9.160;2023-03-31T14:04:29;3.25;;;0.40;;
3465;SDS011;1747;48.884;9.160;2023-03-31T14:07:11;0.50;;;0.30;;
3465;SDS011;1747;48.884;9.160;2023-03-31T14:09:43;2.10;;;0.20;;
3465;SDS011;1747;48.884;9.160;2023-03-31T14:12:21;0.73;;;0.30;;
3465;SDS011;1747;48.884;9.160;2023-03-31T14:14:55;0.68;;;0.35;;
3465;SDS011;1747;48.884;9.160;2023-03-31T14:17:23;0.95;;;0.30;;
3465;SDS011;1747;48.884;9.160;2023-03-31T14:22:51;2.13;;;0.30;;
3465;SDS011;1747;48.884;9.160;2023-03-31T14:25:31;1.63;;;0.40;;
3465;SDS011;1747;48.884;9.160;2023-03-31T14:28:09;0.65;;;0.30;;
3465;SDS011;1747;48.884;9.160;2023-03-31T14:30:47;3.40;;;0.50;;
3465;SDS011;1747;48.884;9.160;2023-03-31T14:33:26;1.35;;;0.35;;
3465;SDS011;1747;48.884;9.160;2023-03-31T14:36:03;1.67;;;0.40;;
3465;SDS011;1747;48.884;9.160;2023-03-31T14:38:37;1.05;;;0.50;;
3465;SDS011;1747;48.884;9.160;2023-03-31T14:41:12;0.63;;;0.40;;
3465;SDS011;1747;48.884;9.160;2023-03-31T14:43:46;0.90;;;0.20;;
3465;SDS011;1747;48.884;9.160;2023-03-31T14:46:17;0.38;;;0.30;;
3465;SDS011;1747;48.884;9.160;2023-03-31T14:48:46;2.08;;;0.50;;
3465;SDS011;1747;48.884;9.160;2023-03-31T14:51:15;0.88;;;0.22;;
3465;SDS011;1747;48.884;9.160;2023-03-31T14:53:43;0.43;;;0.30;;
3465;SDS011;1747;48.884;9.160;2023-03-31T14:56:12;1.00;;;0.40;;
3465;SDS011;1747;48.884;9.160;2023-03-31T14:58:42;0.93;;;0.25;;
3465;SDS011;1747;48.884;9.160;2023-03-31T15:01:13;0.98;;;0.45;;
3465;SDS011;1747;48.884;9.160;2023-03-31T15:03:44;1.02;;;0.30;;
3465;SDS011;1747;48.884;9.160;2023-03-31T15:06:12;1.98;;;0.50;;
3465;SDS011;1747;48.884;9.160;2023-03-31T15:08:40;1.15;;;0.40;;
3465;SDS011;1747;48.884;9.160;2023-03-31T15:11:07;1.48;;;0.63;;
3465;SDS011;1747;48.884;9.160;2023-03-31T15:13:41;2.25;;;0.40;;
3465;SDS011;1747;48.884;9.160;2023-03-31T15:16:19;0.20;;;0.20;;
3465;SDS011;1747;48.884;9.160;2023-03-31T15:18:57;0.55;;;0.22;;
3465;SDS011;1747;48.884;9.160;2023-03-31T15:21:30;1.80;;;0.30;;
3465;SDS011;1747;48.884;9.160;2023-03-31T15:24:02;0.63;;;0.30;;
3465;SDS011;1747;48.884;9.160;2023-03-31T15:26:30;2.47;;;0.50;;
3465;SDS011;1747;48.884;9.160;2023-03-31T15:29:02;0.90;;;0.32;;
3465;SDS011;1747;48.884;9.160;2023-03-31T15:31:33;0.93;;;0.55;;
3465;SDS011;1747;48.884;9.160;2023-03-31T15:34:11;1.08;;;0.40;;
3465;SDS011;1747;48.884;9.160;2023-03-31T15:36:44;0.40;;;0.40;;
3465;SDS011;1747;48.884;9.160;2023-03-31T15:39:11;1.15;;;0.35;;
3465;SDS011;1747;48.884;9.160;2023-03-31T15:41:39;0.88;;;0.47;;
3465;SDS011;1747;48.884;9.160;2023-03-31T15:44:26;2.42;;;0.68;;
3465;SDS011;1747;48.884;9.160;2023-03-31T15:46:58;3.22;;;0.60;;
3465;SDS011;1747;48.884;9.160;2023-03-31T15:49:26;1.73;;;0.50;;
3465;SDS011;1747;48.884;9.160;2023-03-31T15:51:54;4.15;;;0.57;;
3465;SDS011;1747;48.884;9.160;2023-03-31T15:54:34;2.33;;;0.52;;
3465;SDS011;1747;48.884;9.160;2023-03-31T15:57:03;2.28;;;0.52;;
3465;SDS011;1747;48.884;9.160;2023-03-31T15:59:46;1.13;;;0.40;;
3465;SDS011;1747;48.884;9.160;2023-03-31T16:02:15;3.08;;;0.50;;